createdAt,value
2018-08-14T00:02:33.576Z,4.00
2018-08-14T00:07:30.315Z,3.30
2018-08-14T00:12:27.492Z,3.60
2018-08-14T00:17:24.326Z,3.03
2018-08-14T00:22:22.751Z,3.10
2018-08-14T00:27:19.448Z,3.20
2018-08-14T00:32:16.695Z,3.20
2018-08-14T00:37:13.454Z,3.30
2018-08-14T00:42:10.491Z,3.33
2018-08-14T00:47:07.317Z,3.10
2018-08-14T00:52:04.448Z,3.53
2018-08-14T00:57:01.406Z,3.47
2018-08-14T01:01:58.745Z,3.60
2018-08-14T01:06:56.137Z,3.40
2018-08-14T01:11:53.272Z,3.63
2018-08-14T01:16:50.356Z,3.43
2018-08-14T01:21:47.343Z,3.80
2018-08-14T01:26:45.287Z,3.90
2018-08-14T01:31:42.904Z,3.90
2018-08-14T01:36:39.736Z,3.80
2018-08-14T01:41:37.220Z,3.80
2018-08-14T01:46:34.341Z,4.00
2018-08-14T01:51:31.088Z,3.87
2018-08-14T01:56:28.159Z,3.60
2018-08-14T02:01:25.048Z,3.93
2018-08-14T02:06:22.046Z,4.23
2018-08-14T02:11:18.816Z,3.80
2018-08-14T02:16:15.757Z,3.77
2018-08-14T02:21:12.489Z,3.70
2018-08-14T02:26:09.690Z,4.13
2018-08-14T02:31:07.397Z,4.03
2018-08-14T02:36:04.948Z,3.63
2018-08-14T02:41:01.777Z,4.10
2018-08-14T02:45:58.769Z,3.90
2018-08-14T02:50:55.519Z,3.70
2018-08-14T02:55:52.424Z,4.20
2018-08-14T03:00:49.163Z,4.47
2018-08-14T03:05:46.102Z,4.60
2018-08-14T03:10:42.901Z,4.17
2018-08-14T03:15:40.025Z,4.90
2018-08-14T03:20:36.882Z,4.90
2018-08-14T03:25:33.945Z,5.00
2018-08-14T03:30:30.685Z,4.40
2018-08-14T03:35:28.659Z,5.00
2018-08-14T03:40:25.339Z,4.80
2018-08-14T03:45:22.533Z,5.07
2018-08-14T03:50:19.231Z,5.23
2018-08-14T03:55:17.161Z,4.53
2018-08-14T04:00:15.009Z,4.73
2018-08-14T04:05:12.517Z,4.83
2018-08-14T04:10:09.938Z,4.80
2018-08-14T04:15:07.884Z,5.00
2018-08-14T04:20:05.863Z,5.30
2018-08-14T04:25:02.579Z,5.07
2018-08-14T04:29:59.785Z,4.57
2018-08-14T04:34:56.597Z,5.03
2018-08-14T04:39:54.719Z,5.03
2018-08-14T04:44:51.467Z,4.53
2018-08-14T04:49:48.553Z,4.83
2018-08-14T04:54:45.355Z,4.40
2018-08-14T04:59:42.390Z,5.03
2018-08-14T05:04:39.337Z,5.57
2018-08-14T05:09:36.306Z,4.90
2018-08-14T05:14:33.143Z,4.77
2018-08-14T05:19:30.437Z,4.40
2018-08-14T05:24:27.262Z,4.77
2018-08-14T05:29:24.219Z,5.07
2018-08-14T05:34:20.951Z,4.47
2018-08-14T05:39:18.008Z,5.40
2018-08-14T05:44:19.247Z,5.10
2018-08-14T05:49:16.105Z,5.20
2018-08-14T05:54:13.162Z,4.93
2018-08-14T05:59:10.265Z,4.63
2018-08-14T06:04:07.331Z,5.00
2018-08-14T06:09:05.782Z,4.77
2018-08-14T06:14:02.896Z,5.20
2018-08-14T06:18:59.661Z,4.63
2018-08-14T06:23:56.872Z,4.23
2018-08-14T06:28:54.091Z,4.20
2018-08-14T06:33:50.909Z,3.40
2018-08-14T06:38:47.873Z,3.10
2018-08-14T06:43:44.612Z,3.17
2018-08-14T06:48:41.531Z,3.30
2018-08-14T06:53:38.233Z,3.00
2018-08-14T06:58:35.321Z,2.70
2018-08-14T07:03:32.067Z,2.50
2018-08-14T07:08:29.233Z,2.30
2018-08-14T07:13:26.012Z,2.13
2018-08-14T07:18:23.064Z,2.30
2018-08-14T07:23:19.781Z,2.13
2018-08-14T07:28:16.782Z,1.70
2018-08-14T07:33:13.583Z,1.87
2018-08-14T07:38:10.710Z,1.73
2018-08-14T07:43:07.680Z,1.63
2018-08-14T07:48:04.923Z,1.57
2018-08-14T07:53:01.686Z,1.57
2018-08-14T07:57:58.735Z,1.60
2018-08-14T08:02:55.527Z,1.90
2018-08-14T08:07:52.491Z,1.27
2018-08-14T08:12:49.285Z,1.37
2018-08-14T08:17:46.809Z,1.30
2018-08-14T08:22:43.532Z,1.30
2018-08-14T08:27:40.519Z,1.20
2018-08-14T08:32:37.274Z,1.37
2018-08-14T08:37:34.350Z,1.20
2018-08-14T08:42:31.047Z,1.70
2018-08-14T08:47:28.575Z,1.30
2018-08-14T08:52:25.993Z,1.32
2018-08-14T08:57:23.016Z,1.77
2018-08-14T09:02:19.754Z,1.50
2018-08-14T09:07:16.692Z,1.40
2018-08-14T09:12:13.795Z,1.10
2018-08-14T09:17:11.689Z,1.40
2018-08-14T09:22:09.407Z,1.50
2018-08-14T09:27:06.210Z,1.60
2018-08-14T09:32:03.307Z,1.40
2018-08-14T09:37:00.062Z,1.50
2018-08-14T09:41:57.031Z,1.45
2018-08-14T09:46:53.851Z,1.50
2018-08-14T09:51:50.832Z,1.27
2018-08-14T09:56:47.901Z,1.30
2018-08-14T10:01:50.520Z,1.40
2018-08-14T10:06:53.193Z,1.30
2018-08-14T10:11:49.972Z,1.35
2018-08-14T10:16:47.014Z,1.55
2018-08-14T10:21:44.028Z,1.60
2018-08-14T10:26:40.807Z,1.20
2018-08-14T10:31:37.791Z,1.45
2018-08-14T10:36:34.957Z,1.50
2018-08-14T10:41:31.615Z,1.37
2018-08-14T10:46:28.717Z,1.50
2018-08-14T10:51:25.653Z,1.55
2018-08-14T10:56:22.439Z,1.90
2018-08-14T11:01:19.991Z,1.70
2018-08-14T11:06:16.901Z,1.60
2018-08-14T11:11:17.899Z,1.47
2018-08-14T11:16:14.982Z,1.40
2018-08-14T11:21:11.921Z,1.60
2018-08-14T11:26:08.940Z,1.80
2018-08-14T11:31:05.957Z,1.22
2018-08-14T11:36:04.600Z,1.35
2018-08-14T11:41:01.523Z,1.50
2018-08-14T11:45:59.388Z,1.40
2018-08-14T11:50:56.446Z,1.55
2018-08-14T11:55:53.119Z,1.70
2018-08-14T12:00:50.168Z,1.45
2018-08-14T12:05:46.902Z,1.40
2018-08-14T12:10:43.892Z,1.62
2018-08-14T12:15:40.856Z,1.55
2018-08-14T12:20:37.614Z,1.82
2018-08-14T12:25:34.699Z,1.45
2018-08-14T12:30:32.575Z,1.82
2018-08-14T12:35:29.534Z,2.00
2018-08-14T12:40:26.442Z,1.85
2018-08-14T12:45:23.671Z,1.98
2018-08-14T12:50:21.437Z,1.57
2018-08-14T12:55:18.902Z,1.60
2018-08-14T13:00:20.377Z,1.72
2018-08-14T13:05:17.128Z,1.80
2018-08-14T13:10:14.222Z,1.82
2018-08-14T13:15:12.485Z,2.10
2018-08-14T13:20:11.148Z,2.02
2018-08-14T13:25:09.670Z,1.82
2018-08-14T13:30:09.058Z,1.60
2018-08-14T13:35:06.195Z,2.00
2018-08-14T13:40:03.879Z,2.10
2018-08-14T13:45:00.637Z,1.90
2018-08-14T13:49:57.582Z,1.80
2018-08-14T13:54:54.335Z,1.95
2018-08-14T13:59:51.311Z,1.90
2018-08-14T14:04:48.465Z,2.08
2018-08-14T14:09:45.425Z,2.55
2018-08-14T14:14:42.211Z,2.10
2018-08-14T14:19:39.455Z,1.95
2018-08-14T14:24:36.225Z,2.17
2018-08-14T14:29:33.922Z,2.30
2018-08-14T14:34:30.635Z,2.00
2018-08-14T14:39:27.965Z,2.20
2018-08-14T14:44:24.867Z,1.90
2018-08-14T14:49:21.945Z,2.17
2018-08-14T14:54:18.751Z,1.70
2018-08-14T14:59:15.770Z,2.20
2018-08-14T15:04:12.526Z,2.08
2018-08-14T15:09:10.814Z,2.20
2018-08-14T15:14:08.105Z,1.72
2018-08-14T15:19:13.213Z,2.47
2018-08-14T15:24:10.813Z,2.67
2018-08-14T15:29:14.654Z,2.40
2018-08-14T15:34:13.163Z,2.58
2018-08-14T15:39:09.807Z,2.40
2018-08-14T15:44:07.310Z,1.95
2018-08-14T15:49:04.855Z,2.30
2018-08-14T15:54:02.010Z,2.40
2018-08-14T15:58:58.689Z,2.65
2018-08-14T16:03:55.905Z,2.40
2018-08-14T16:08:52.658Z,2.42
2018-08-14T16:13:49.930Z,2.20
2018-08-14T16:18:47.097Z,2.45
2018-08-14T16:23:44.277Z,2.33
2018-08-14T16:28:41.077Z,2.33
2018-08-14T16:33:38.295Z,2.33
2018-08-14T16:38:35.260Z,2.20
2018-08-14T16:43:33.221Z,2.67
2018-08-14T16:48:30.393Z,2.30
2018-08-14T16:53:27.494Z,2.40
2018-08-14T16:58:24.356Z,3.10
2018-08-14T17:03:21.927Z,2.40
2018-08-14T17:08:18.343Z,1.95
2018-08-14T17:13:15.853Z,2.22
2018-08-14T17:18:12.577Z,2.10
2018-08-14T17:23:09.567Z,1.85
2018-08-14T17:28:06.274Z,2.25
2018-08-14T17:33:03.420Z,2.10
2018-08-14T17:38:00.183Z,2.10
2018-08-14T17:42:57.126Z,2.58
2018-08-14T17:47:58.398Z,2.27
2018-08-14T17:52:55.185Z,2.20
2018-08-14T17:57:52.209Z,2.62
2018-08-14T18:02:50.829Z,2.20
2018-08-14T18:07:47.606Z,2.83
2018-08-14T18:12:45.639Z,3.00
2018-08-14T18:17:42.501Z,3.08
2018-08-14T18:22:39.438Z,3.30
2018-08-14T18:27:36.452Z,3.40
2018-08-14T18:32:33.157Z,3.05
2018-08-14T18:37:30.360Z,3.10
2018-08-14T18:42:27.325Z,2.92
2018-08-14T18:47:24.414Z,3.05
2018-08-14T18:52:21.108Z,2.98
2018-08-14T18:57:18.011Z,3.40
2018-08-14T19:02:15.195Z,3.35
2018-08-14T19:07:12.026Z,3.55
2018-08-14T19:12:09.046Z,3.98
2018-08-14T19:17:05.962Z,3.50
2018-08-14T19:22:02.908Z,3.98
2018-08-14T19:26:59.637Z,4.10
2018-08-14T19:31:56.441Z,3.90
2018-08-14T19:36:53.488Z,3.98
2018-08-14T19:41:50.239Z,4.22
2018-08-14T19:46:47.163Z,3.67
2018-08-14T19:51:43.877Z,4.17
2018-08-14T19:56:40.906Z,3.63
2018-08-14T20:01:37.537Z,3.58
2018-08-14T20:06:34.458Z,4.13
2018-08-14T20:11:31.139Z,6.90
2018-08-14T20:16:28.067Z,6.00
2018-08-14T20:21:25.006Z,4.60
2018-08-14T20:26:21.893Z,3.90
2018-08-14T20:31:18.591Z,3.77
2018-08-14T20:36:15.929Z,3.63
2018-08-14T20:41:12.634Z,4.20
2018-08-14T20:46:10.365Z,3.97
2018-08-14T20:51:07.158Z,3.70
2018-08-14T20:56:04.074Z,4.00
2018-08-14T21:01:00.857Z,4.07
2018-08-14T21:05:57.798Z,3.63
2018-08-14T21:10:54.462Z,4.00
2018-08-14T21:15:57.078Z,4.10
2018-08-14T21:20:54.012Z,4.60
2018-08-14T21:25:50.809Z,4.63
2018-08-14T21:30:47.861Z,5.03
2018-08-14T21:35:44.544Z,5.03
2018-08-14T21:40:41.535Z,4.10
2018-08-14T21:45:38.332Z,4.80
2018-08-14T21:50:35.271Z,4.63
2018-08-14T21:55:32.085Z,4.33
2018-08-14T22:00:38.519Z,4.40
2018-08-14T22:05:35.233Z,4.10
2018-08-14T22:10:32.329Z,4.47
2018-08-14T22:15:29.062Z,4.70
2018-08-14T22:20:25.895Z,4.63
2018-08-14T22:25:22.648Z,4.40
2018-08-14T22:30:19.573Z,4.77
2018-08-14T22:35:16.305Z,4.90
2018-08-14T22:40:13.179Z,5.20
2018-08-14T22:45:10.385Z,4.77
2018-08-14T22:50:08.446Z,4.63
2018-08-14T22:55:05.938Z,4.73
2018-08-14T23:00:02.850Z,4.87
2018-08-14T23:04:59.837Z,4.80
2018-08-14T23:09:56.875Z,5.10
2018-08-14T23:14:53.756Z,4.90
2018-08-14T23:19:50.413Z,5.27
2018-08-14T23:24:47.472Z,5.30
2018-08-14T23:29:44.594Z,5.10
2018-08-14T23:34:41.339Z,4.60
2018-08-14T23:39:38.383Z,5.17
2018-08-14T23:44:35.155Z,4.77
2018-08-14T23:49:32.079Z,5.63
2018-08-14T23:54:29.109Z,5.27
2018-08-14T23:59:26.112Z,5.47
